Aérodrome :
LOGIN :

S'inscrire | Disclaimer

   EN    FR    IT 

 










Légende :    VFR   VFR Marginal   IFR   IFR Intensif   IFR Très Intensif
Visi : 
Plafond : 
>= 8 km
>= 3000ft
5 à 8 km
1000 à 3000 ft
1500m à 5 km
500 à 1000 ft
800 à 1500m
200 à 500 ft
< 800m
< 200 ft
Symboles :   Orages  Brouillard  Fortes neiges  Fortes précipitations  Vent > 20 kt
SIGMETs :   Divers  Orages  Givrage  Turbulence  Onde Orograph.  Cendres Volcan.







- Altitude de l'aérodrome : 302 ft
- Code IATA : CGN


EDDK - Cologne Bonn

DERNIER METAR :
  • 190020Z VRB01KT 8000 0700SE R32R/1100VP2000D R06/0600VP2000U BCFG NSC 07/07 Q1024 TEMPO 0700 FG

METARs EXPIRÉS :
  • 182350Z VRB02KT 9000 1400E R32R/0800VP2000D R06/P2000N BCFG NSC 08/08 Q1024 NOSIG
  • 182320Z 15003KT 9000 1400E R32R/1500VP2000N R06/P2000N BCFG NSC 09/08 Q1024 TEMPO 1400 BR
  • 182250Z VRB01KT 9999 2000NW BCFG NSC 09/08 Q1024 TEMPO 2000 BR
  • 182220Z VRB01KT 9999 3000N BCFG NSC 08/07 Q1024 TEMPO 3000 BR
  • 182150Z 07002KT 9999 4000N BCFG NSC 09/08 Q1024 TEMPO 4000 BR

TAF TAF EDDK
Valide du 19 à 00h jusqu'au 20 à 06h UTC


182300Z 1900/2006 VRB03KT CAVOK
PROB40
TEMPO 1902/1909 4000 BR BKN012
PROB30
TEMPO 1903/1907 1400 BR
Pas de NOTAMs connus pour ce terrain.



MET'MAP, la Météo Aéronautique d'un coup d'oeil ! - Copyright ORBIFLY Décembre 2007 - Disclaimer

ORBIFLY MET'MAP TEAM :

Programmation & Développement : Alexandra Zaïnal
Conception & Développement : Baudouin d'Aumeries
Co-Programmation & Développement : Marc-Olivier Méhu
Soutien technique & logistique : Manuel Goepfert

Contact : metmap@orbifly.com




SOURCES & CREDITS :

   NOAA